Time;durP1;ratioP1;P1;durP2;ratioP2;P2;SDS_P1;SDS_P2;PMS_P1;PMS_P2;Temp;Humidity;BMP_temperature;BMP_pressure;BME280_temperature;BME280_humidity;BME280_pressure;Samples;Min_cycle;Max_cycle;Signal;HPM_P1;HPM_P2
2022/12/09 00:01:27;;;;;;;1999.90;999.90;;;2.60;99.90;;;;;;5049340;28;20073;-77
2022/12/09 00:04:06;;;;;;;1999.90;999.90;;;2.70;99.90;;;;;;5042453;28;20040;-77
2022/12/09 00:06:48;;;;;;;1999.90;999.90;;;2.70;99.90;;;;;;5051089;28;20408;-77
2022/12/09 00:09:54;;;;;;;1999.90;999.90;;;2.70;99.90;;;;;;5053755;28;20028;-77
2022/12/09 00:12:50;;;;;;;1999.90;999.90;;;2.60;99.90;;;;;;5053202;28;20032;-77
2022/12/09 00:15:17;;;;;;;1999.90;999.90;;;2.70;99.90;;;;;;5055580;28;20021;-76
2022/12/09 00:18:09;;;;;;;1999.90;999.90;;;2.70;99.90;;;;;;5044144;28;20058;-76
2022/12/09 00:20:38;;;;;;;1999.90;999.90;;;2.70;99.90;;;;;;5053992;28;20476;-76
2022/12/09 00:23:06;;;;;;;1999.90;999.90;;;2.70;99.90;;;;;;5053713;28;20116;-77
2022/12/09 00:25:43;;;;;;;1999.90;999.90;;;2.70;99.90;;;;;;5053319;28;20021;-76
2022/12/09 00:28:35;;;;;;;1999.90;999.90;;;2.70;99.90;;;;;;5054285;28;20123;-75
2022/12/09 00:31:32;;;;;;;1999.90;999.90;;;2.70;99.90;;;;;;5053250;28;20037;-75
2022/12/09 00:34:05;;;;;;;1999.90;999.90;;;2.70;99.90;;;;;;5053872;28;20067;-76
2022/12/09 00:36:58;;;;;;;1999.90;999.90;;;2.70;99.90;;;;;;5053866;28;20017;-75
2022/12/09 08:22:08;;;;;;;1999.90;999.90;;;2.00;99.90;;;;;;5993622;23;20036;-78
2022/12/09 08:24:34;;;;;;;1999.90;999.90;;;1.90;99.90;;;;;;4896135;29;20051;-77
2022/12/09 08:27:00;;;;;;;1999.90;999.90;;;1.90;99.90;;;;;;4918392;29;20024;-78
2022/12/09 08:29:27;;;;;;;1999.90;999.90;;;1.90;99.90;;;;;;4905374;29;20028;-78
2022/12/09 08:31:52;;;;;;;1999.90;999.90;;;2.00;99.90;;;;;;4913614;29;20075;-78
2022/12/09 08:34:18;;;;;;;1999.90;999.90;;;2.00;99.90;;;;;;4936836;29;20074;-78
2022/12/09 08:36:44;;;;;;;1999.90;999.90;;;2.00;99.90;;;;;;4919593;29;20043;-78
2022/12/09 08:39:11;;;;;;;1999.90;999.90;;;1.90;99.90;;;;;;4928783;29;20387;-77
2022/12/09 08:41:37;;;;;;;1999.90;999.90;;;2.00;99.90;;;;;;4926654;29;20024;-77
2022/12/09 08:44:15;;;;;;;1999.90;999.90;;;2.10;99.90;;;;;;4912472;29;20068;-77
2022/12/09 08:46:46;;;;;;;1999.90;999.90;;;2.10;99.90;;;;;;4936951;29;20027;-77
2022/12/09 08:49:16;;;;;;;1999.90;999.90;;;2.10;99.90;;;;;;4919456;29;20032;-77
2022/12/09 08:51:43;;;;;;;1999.90;999.90;;;2.10;99.90;;;;;;4922830;29;20047;-77
2022/12/09 08:54:08;;;;;;;1999.90;999.90;;;2.10;99.90;;;;;;4935202;29;20091;-77
2022/12/09 08:56:34;;;;;;;1999.90;999.90;;;2.20;99.90;;;;;;4936379;29;20059;-78
2022/12/09 08:59:00;;;;;;;1999.90;999.90;;;2.20;99.90;;;;;;4936292;29;20042;-76
2022/12/09 09:01:31;;;;;;;1999.90;999.90;;;2.30;99.90;;;;;;4919334;29;20032;-77
2022/12/09 09:03:58;;;;;;;1999.90;999.90;;;2.20;99.90;;;;;;4936166;29;20031;-77
2022/12/09 09:06:24;;;;;;;1999.90;999.90;;;2.30;99.90;;;;;;4922876;29;20435;-77
2022/12/09 09:08:50;;;;;;;1999.90;999.90;;;2.40;99.90;;;;;;4930905;29;20028;-77
2022/12/09 09:11:18;;;;;;;1999.90;999.90;;;2.40;99.90;;;;;;4935510;29;20086;-77
2022/12/09 09:13:47;;;;;;;1999.90;999.90;;;2.50;99.90;;;;;;4918737;29;20036;-78
2022/12/09 09:16:15;;;;;;;1999.90;999.90;;;2.50;99.90;;;;;;4935529;29;20028;-78
2022/12/09 09:18:41;;;;;;;1999.90;999.90;;;2.60;99.90;;;;;;4930460;29;20098;-78
2022/12/09 09:21:08;;;;;;;1999.90;999.90;;;2.70;99.90;;;;;;4935856;29;20031;-77
2022/12/09 09:23:34;;;;;;;1999.90;999.90;;;2.60;99.90;;;;;;4934200;29;20056;-77
2022/12/09 09:26:00;;;;;;;1999.90;999.90;;;2.70;99.90;;;;;;4935048;29;20054;-77
2022/12/09 09:28:26;;;;;;;1999.90;999.90;;;2.60;99.90;;;;;;4930474;29;20497;-77
2022/12/09 09:31:03;;;;;;;1999.90;999.90;;;2.70;99.90;;;;;;4894646;29;20031;-77
2022/12/09 09:33:29;;;;;;;1999.90;999.90;;;2.80;99.90;;;;;;4922689;29;20047;-76
2022/12/09 09:35:59;;;;;;;1999.90;999.90;;;2.80;99.90;;;;;;4916620;29;20028;-77
2022/12/09 09:38:26;;;;;;;1999.90;999.90;;;2.90;99.90;;;;;;4921087;29;20344;-78
2022/12/09 09:40:52;;;;;;;1999.90;999.90;;;2.90;99.90;;;;;;4915682;29;20112;-78
2022/12/09 09:43:22;;;;;;;1999.90;999.90;;;3.00;99.90;;;;;;4922585;29;20036;-77
2022/12/09 09:45:49;;;;;;;1999.90;999.90;;;3.20;99.90;;;;;;4934373;29;20031;-77
2022/12/09 09:48:20;;;;;;;1999.90;999.90;;;3.20;99.90;;;;;;4927967;29;20096;-76
2022/12/09 09:50:57;;;;;;;1999.90;999.90;;;3.00;99.90;;;;;;4901444;29;20028;-76
2022/12/09 09:53:25;;;;;;;1999.90;999.90;;;2.90;99.90;;;;;;4921719;29;20059;-76
2022/12/09 09:56:05;;;;;;;1999.90;999.90;;;2.70;99.90;;;;;;4898979;29;20039;-76
2022/12/09 09:58:46;;;;;;;1999.90;999.90;;;2.70;99.90;;;;;;4925028;29;20446;-76
2022/12/09 10:01:15;;;;;;;1999.90;999.90;;;2.70;99.90;;;;;;4935372;29;20060;-79
2022/12/09 10:04:01;;;;;;;1999.90;999.90;;;3.00;99.90;;;;;;4938242;29;20043;-79
2022/12/09 10:06:53;;;;;;;1999.90;999.90;;;3.30;99.90;;;;;;4932062;29;20399;-79
2022/12/09 10:09:25;;;;;;;1999.90;999.90;;;3.40;99.90;;;;;;4919088;29;20098;-79
2022/12/09 10:11:59;;;;;;;1999.90;999.90;;;3.40;99.90;;;;;;4929930;29;20032;-79
2022/12/09 10:14:48;;;;;;;1999.90;999.90;;;3.40;99.90;;;;;;4930948;29;20038;-79
2022/12/09 10:17:33;;;;;;;1999.90;999.90;;;3.40;99.90;;;;;;4913963;29;20028;-79
2022/12/09 10:20:10;;;;;;;1999.90;999.90;;;3.40;99.90;;;;;;4935447;29;20028;-79
2022/12/09 10:22:57;;;;;;;1999.90;999.90;;;3.50;99.90;;;;;;4931887;29;20048;-79
2022/12/09 10:25:26;;;;;;;1999.90;999.90;;;3.60;99.90;;;;;;4931811;29;20036;-79
2022/12/09 10:27:58;;;;;;;1999.90;999.90;;;3.70;99.90;;;;;;4925365;29;20585;-78
2022/12/09 10:30:24;;;;;;;1999.90;999.90;;;3.70;99.90;;;;;;4928772;29;20102;-79
2022/12/09 10:32:50;;;;;;;1999.90;999.90;;;3.90;99.90;;;;;;4922201;29;20035;-78
2022/12/09 10:35:18;;;;;;;1999.90;999.90;;;3.80;99.90;;;;;;4905552;29;20036;-81
2022/12/09 10:37:44;;;;;;;1999.90;999.90;;;3.60;99.90;;;;;;4926322;29;20071;-81
2022/12/09 10:40:09;;;;;;;1999.90;999.90;;;3.70;99.90;;;;;;4927913;29;20034;-79
2022/12/09 10:45:32;;;;;;;1999.90;999.90;;;3.70;99.90;;;;;;4921133;29;20036;-78
2022/12/09 10:47:58;;;;;;;1999.90;999.90;;;3.90;99.90;;;;;;4934878;29;20495;-78
2022/12/09 10:50:33;;;;;;;1999.90;999.90;;;4.10;99.90;;;;;;4926539;29;20028;-77
2022/12/09 10:53:12;;;;;;;1999.90;999.90;;;4.20;99.90;;;;;;4917310;29;20495;-77
2022/12/09 10:55:43;;;;;;;1999.90;999.90;;;4.40;99.90;;;;;;4934325;29;20495;-77
2022/12/09 10:58:24;;;;;;;1999.90;999.90;;;4.60;99.90;;;;;;4917707;29;20432;-78
2022/12/09 11:01:10;;;;;;;1999.90;999.90;;;4.70;99.90;;;;;;4922878;29;20032;-79
2022/12/09 11:03:45;;;;;;;1999.90;999.90;;;5.00;99.90;;;;;;4930016;29;20028;-78
2022/12/09 11:06:21;;;;;;;1999.90;999.90;;;4.80;99.90;;;;;;4932588;29;20086;-78
2022/12/09 11:08:53;;;;;;;1999.90;999.90;;;4.90;99.90;;;;;;4929403;29;20032;-79
2022/12/09 11:11:36;;;;;;;1999.90;999.90;;;5.00;99.90;;;;;;4924910;29;20371;-78
2022/12/09 11:14:02;;;;;;;1999.90;999.90;;;5.10;99.90;;;;;;4934493;29;20031;-79
2022/12/09 11:16:27;;;;;;;1999.90;999.90;;;5.00;99.90;;;;;;4930417;29;20032;-78
2022/12/09 11:18:54;;;;;;;1999.90;999.90;;;5.10;99.90;;;;;;4882876;29;20044;-78
2022/12/09 11:21:29;;;;;;;1999.90;999.90;;;5.10;99.90;;;;;;4934463;29;20063;-79
2022/12/09 11:23:55;;;;;;;1999.90;999.90;;;5.10;99.90;;;;;;4934123;29;20047;-79
2022/12/09 11:26:23;;;;;;;1999.90;999.90;;;5.10;99.90;;;;;;4934238;29;20518;-79
2022/12/09 11:29:04;;;;;;;1999.90;999.90;;;5.00;99.90;;;;;;4934755;29;20468;-79
2022/12/09 11:31:32;;;;;;;1999.90;999.90;;;5.20;99.90;;;;;;4917341;29;20027;-79
2022/12/09 11:34:01;;;;;;;1999.90;999.90;;;5.20;99.90;;;;;;4916363;29;20135;-79
2022/12/09 11:36:44;;;;;;;1999.90;999.90;;;5.40;99.90;;;;;;4934223;29;20151;-80
2022/12/09 11:39:22;;;;;;;1999.90;999.90;;;5.60;99.90;;;;;;4934353;29;20031;-79
2022/12/09 11:44:36;;;;;;;1999.90;999.90;;;5.50;99.90;;;;;;4921377;29;20458;-78
2022/12/09 11:47:39;;;;;;;1999.90;999.90;;;5.30;99.90;;;;;;4912897;29;20028;-81
2022/12/09 11:50:18;;;;;;;1999.90;999.90;;;5.50;99.90;;;;;;4896892;29;20024;-80
2022/12/09 11:52:44;;;;;;;1999.90;999.90;;;5.70;99.90;;;;;;4917125;29;20036;-79
2022/12/09 11:55:13;;;;;;;1999.90;999.90;;;5.90;99.90;;;;;;4916478;29;20035;-80
2022/12/09 11:57:53;;;;;;;1999.90;999.90;;;6.20;99.90;;;;;;4899132;29;20409;-80
2022/12/09 12:00:41;;;;;;;1999.90;999.90;;;6.50;99.90;;;;;;4915667;29;20040;-80
2022/12/09 12:03:16;;;;;;;1999.90;999.90;;;6.50;99.90;;;;;;4921396;29;20832;-78
2022/12/09 12:05:44;;;;;;;1999.90;999.90;;;6.60;99.90;;;;;;4938002;29;20050;-78
2022/12/09 12:08:26;;;;;;;1999.90;999.90;;;6.40;99.90;;;;;;4938567;29;20047;-78
2022/12/09 12:10:58;;;;;;;1999.90;999.90;;;6.30;99.90;;;;;;4918408;29;20035;-79
2022/12/09 12:13:28;;;;;;;1999.90;999.90;;;6.20;99.90;;;;;;4919820;29;20082;-78
2022/12/09 12:16:12;;;;;;;1999.90;999.90;;;6.10;99.90;;;;;;4898024;29;20364;-78
2022/12/09 12:18:52;;;;;;;1999.90;999.90;;;6.30;99.90;;;;;;4926915;29;20032;-77
2022/12/09 12:21:43;;;;;;;1999.90;999.90;;;6.50;99.90;;;;;;4935957;29;20495;-77
2022/12/09 12:24:48;;;;;;;1999.90;999.90;;;6.30;99.90;;;;;;4900984;29;20043;-77
2022/12/09 12:27:50;;;;;;;1999.90;999.90;;;6.60;99.90;;;;;;4887627;29;20155;-77
2022/12/09 12:30:19;;;;;;;1999.90;999.90;;;6.70;99.90;;;;;;4889599;29;20137;-77
2022/12/09 12:33:13;;;;;;;1999.90;999.90;;;6.80;99.90;;;;;;4897115;29;20032;-78
2022/12/09 12:36:11;;;;;;;1999.90;999.90;;;6.90;99.90;;;;;;4898086;29;20033;-77
2022/12/09 12:38:43;;;;;;;1999.90;999.90;;;6.90;99.90;;;;;;4881519;29;20123;-77
2022/12/09 12:41:08;;;;;;;1999.90;999.90;;;6.80;99.90;;;;;;4878901;29;20064;-77
2022/12/09 12:47:46;;;;;;;1999.90;999.90;;;6.70;99.90;;;;;;4861741;29;20068;-77
2022/12/09 12:50:22;;;;;;;1999.90;999.90;;;6.80;99.90;;;;;;4844053;29;20034;-78
2022/12/09 12:53:14;;;;;;;1999.90;999.90;;;7.10;99.90;;;;;;4860056;29;20025;-77
2022/12/09 12:55:55;;;;;;;1999.90;999.90;;;7.00;99.90;;;;;;4812098;29;20057;-78
2022/12/09 12:58:47;;;;;;;1999.90;999.90;;;7.00;99.90;;;;;;4857173;29;20432;-80
2022/12/09 13:01:32;;;;;;;1999.90;999.90;;;7.00;99.90;;;;;;4884254;29;20112;-80
2022/12/09 13:04:25;;;;;;;1999.90;999.90;;;7.20;99.90;;;;;;4870274;29;20087;-78
2022/12/09 13:07:00;;;;;;;1999.90;999.90;;;7.10;99.90;;;;;;4860106;29;20033;-78
2022/12/09 13:10:06;;;;;;;1999.90;999.90;;;7.00;99.90;;;;;;4860022;29;20082;-78
2022/12/09 13:12:52;;;;;;;1999.90;999.90;;;7.10;99.90;;;;;;4861751;29;20050;-78
2022/12/09 13:15:23;;;;;;;1999.90;999.90;;;7.30;99.90;;;;;;4860360;29;20048;-79
2022/12/09 13:17:50;;;;;;;1999.90;999.90;;;7.50;99.90;;;;;;4860098;29;20093;-78
2022/12/09 13:20:28;;;;;;;1999.90;999.90;;;7.50;99.90;;;;;;4848335;29;20058;-78
2022/12/09 13:23:11;;;;;;;1999.90;999.90;;;7.90;99.90;;;;;;4870677;29;20060;-77
2022/12/09 13:25:55;;;;;;;1999.90;999.90;;;8.10;99.90;;;;;;4899369;29;20040;-77
2022/12/09 13:28:47;;;;;;;1999.90;999.90;;;7.90;99.90;;;;;;4913883;29;20102;-78
2022/12/09 13:31:16;;;;;;;1999.90;999.90;;;8.20;99.90;;;;;;4927211;29;20024;-78
2022/12/09 13:34:29;;;;;;;1999.90;999.90;;;8.30;99.90;;;;;;4917349;29;20035;-78
2022/12/09 13:36:55;;;;;;;1999.90;999.90;;;8.20;99.90;;;;;;4917189;29;20027;-77
2022/12/09 13:39:39;;;;;;;1999.90;999.90;;;8.20;99.90;;;;;;4926502;29;20024;-77
2022/12/09 13:45:15;;;;;;;1999.90;999.90;;;7.60;99.90;;;;;;4921975;29;20083;-78
2022/12/09 13:47:41;;;;;;;1999.90;999.90;;;7.60;99.90;;;;;;4916945;29;20055;-78
2022/12/09 13:50:39;;;;;;;1999.90;999.90;;;7.60;99.90;;;;;;4916877;29;20111;-78
2022/12/09 13:53:18;;;;;;;1999.90;999.90;;;7.60;99.90;;;;;;4917312;29;20075;-80
2022/12/09 13:55:59;;;;;;;1999.90;999.90;;;7.50;99.90;;;;;;4899385;29;20047;-80
2022/12/09 13:59:02;;;;;;;1999.90;999.90;;;7.60;99.90;;;;;;4905257;29;20053;-79
2022/12/09 14:01:43;;;;;;;1999.90;999.90;;;7.60;99.90;;;;;;4935532;29;20039;-79
2022/12/09 14:04:32;;;;;;;1999.90;999.90;;;7.60;99.90;;;;;;4919189;29;20554;-77
2022/12/09 14:07:13;;;;;;;1999.90;999.90;;;7.80;99.90;;;;;;4918293;29;20335;-79
2022/12/09 14:09:47;;;;;;;1999.90;999.90;;;7.90;99.90;;;;;;4935748;29;20051;-80
2022/12/09 14:12:18;;;;;;;1999.90;999.90;;;7.90;99.90;;;;;;4935066;29;20028;-80
2022/12/09 14:14:53;;;;;;;1999.90;999.90;;;8.00;99.90;;;;;;4934520;29;20047;-78
2022/12/09 14:17:25;;;;;;;1999.90;999.90;;;8.00;99.90;;;;;;4924148;29;20024;-79
2022/12/09 14:20:03;;;;;;;1999.90;999.90;;;7.90;99.90;;;;;;4924758;29;20391;-79
2022/12/09 14:22:35;;;;;;;1999.90;999.90;;;7.90;99.90;;;;;;4897400;29;20036;-78
2022/12/09 14:25:27;;;;;;;1999.90;999.90;;;7.80;99.90;;;;;;4896904;29;20036;-78
2022/12/09 14:28:10;;;;;;;1999.90;999.90;;;7.80;99.90;;;;;;4897703;29;20020;-79
2022/12/09 14:30:59;;;;;;;1999.90;999.90;;;8.00;99.90;;;;;;4897649;29;20028;-79
2022/12/09 14:33:33;;;;;;;1999.90;999.90;;;8.00;99.90;;;;;;4897614;29;20035;-78
2022/12/09 14:36:22;;;;;;;1999.90;999.90;;;8.10;99.90;;;;;;4880917;29;20040;-79
2022/12/09 14:39:12;;;;;;;1999.90;999.90;;;8.10;99.90;;;;;;4924654;29;20146;-79
2022/12/09 14:42:00;;;;;;;1999.90;999.90;;;7.90;99.90;;;;;;4934953;29;20067;-79
2022/12/09 14:44:50;;;;;;;1999.90;999.90;;;8.00;99.90;;;;;;4936087;29;20031;-80
2022/12/09 14:47:29;;;;;;;1999.90;999.90;;;8.10;99.90;;;;;;4935029;29;20039;-79
2022/12/09 14:50:04;;;;;;;1999.90;999.90;;;7.90;99.90;;;;;;4934973;29;20024;-79
2022/12/09 14:52:31;;;;;;;1999.90;999.90;;;8.00;99.90;;;;;;4918167;29;20542;-79
2022/12/09 14:55:01;;;;;;;1999.90;999.90;;;8.10;99.90;;;;;;4914638;29;20154;-79
2022/12/09 14:57:33;;;;;;;1999.90;999.90;;;8.30;99.90;;;;;;4915963;29;20032;-80
2022/12/09 14:59:58;;;;;;;1999.90;999.90;;;8.40;99.90;;;;;;4916132;29;20043;-79
2022/12/09 15:02:28;;;;;;;1999.90;999.90;;;8.20;99.90;;;;;;4915971;29;20482;-78
2022/12/09 15:04:55;;;;;;;1999.90;999.90;;;8.30;99.90;;;;;;4917639;29;20028;-78
2022/12/09 15:07:32;;;;;;;1999.90;999.90;;;8.60;99.90;;;;;;4899150;29;20035;-79
2022/12/09 15:10:05;;;;;;;1999.90;999.90;;;8.90;99.90;;;;;;4915752;29;20463;-78
2022/12/09 15:12:35;;;;;;;1999.90;999.90;;;9.10;99.90;;;;;;4899307;29;20519;-80
2022/12/09 15:15:19;;;;;;;1999.90;999.90;;;9.10;99.90;;;;;;4914639;29;20036;-79
2022/12/09 15:17:54;;;;;;;1999.90;999.90;;;9.80;99.90;;;;;;4923475;29;20042;-79
2022/12/09 15:20:26;;;;;;;1999.90;999.90;;;10.40;99.90;;;;;;4935144;29;20109;-80
2022/12/09 15:23:13;;;;;;;1999.90;999.90;;;10.70;99.90;;;;;;4916133;29;20443;-80
2022/12/09 15:25:46;;;;;;;1999.90;999.90;;;10.90;99.90;;;;;;4914605;29;20492;-79
2022/12/09 15:28:13;;;;;;;;;;;11.20;99.90;;;;;;4916460;29;20039;-80
2022/12/09 15:30:39;;;;;;;1999.90;999.90;;;11.20;99.90;;;;;;4915756;29;19950;-80
2022/12/09 15:33:16;;;;;;;1999.90;999.90;;;11.40;99.90;;;;;;4915925;29;20111;-81
2022/12/09 15:35:48;;;;;;;1999.90;999.90;;;11.10;99.90;;;;;;4915954;29;20164;-82
2022/12/09 15:38:14;;;;;;;1999.90;999.90;;;11.00;99.90;;;;;;4917631;29;20032;-81
2022/12/09 15:42:05;;;;;;;1999.90;999.90;;;10.30;99.90;;;;;;4919620;29;20353;-81
2022/12/09 15:43:30;;;;;;;1999.90;999.90;;;10.20;99.90;;;;;;4919387;29;20503;-81
2022/12/09 15:45:56;;;;;;;1999.90;999.90;;;9.90;99.90;;;;;;4934816;29;20398;-82
2022/12/09 15:48:27;;;;;;;1999.90;999.90;;;9.70;99.90;;;;;;4938988;29;20023;-81
2022/12/09 15:51:01;;;;;;;1999.90;999.90;;;9.50;99.90;;;;;;4938710;29;20067;-81
2022/12/09 15:53:32;;;;;;;1999.90;999.90;;;8.90;99.90;;;;;;4938600;29;20055;-81
2022/12/09 15:56:10;;;;;;;1999.90;999.90;;;8.60;99.90;;;;;;4926994;29;20039;-81
2022/12/09 15:58:41;;;;;;;1999.90;999.90;;;8.00;99.90;;;;;;4919658;29;20023;-81
2022/12/09 16:01:08;;;;;;;1999.90;999.90;;;7.50;99.90;;;;;;4919376;29;20038;-81
2022/12/09 16:03:34;;;;;;;1999.90;999.90;;;7.00;99.90;;;;;;4910381;29;20034;-81
2022/12/09 16:06:06;;;;;;;1999.90;999.90;;;6.30;99.90;;;;;;4938330;29;20059;-81
2022/12/09 16:08:43;;;;;;;1999.90;999.90;;;5.40;99.90;;;;;;4937173;29;20016;-81
2022/12/09 16:11:10;;;;;;;1999.90;999.90;;;4.80;99.90;;;;;;4938178;29;20059;-81
2022/12/09 16:13:55;;;;;;;1999.90;999.90;;;4.40;99.90;;;;;;4920757;29;20020;-81
2022/12/09 16:16:28;;;;;;;1999.90;999.90;;;4.20;99.90;;;;;;4933521;29;20074;-80
2022/12/09 16:18:55;;;;;;;1999.90;999.90;;;4.00;99.90;;;;;;4919179;29;20047;-81
2022/12/09 16:21:27;;;;;;;1999.90;999.90;;;3.80;99.90;;;;;;4918773;29;20080;-81
2022/12/09 16:23:55;;;;;;;1999.90;999.90;;;3.60;99.90;;;;;;4918591;29;20044;-81
2022/12/09 16:26:34;;;;;;;1999.90;999.90;;;3.50;99.90;;;;;;4918577;29;20431;-81
2022/12/09 16:29:03;;;;;;;1999.90;999.90;;;3.40;99.90;;;;;;4918891;29;20028;-82
2022/12/09 16:31:29;;;;;;;1999.90;999.90;;;3.40;99.90;;;;;;4918692;29;20563;-82
2022/12/09 16:33:56;;;;;;;1999.90;999.90;;;3.20;99.90;;;;;;4901746;29;20146;-82
2022/12/09 16:36:30;;;;;;;1999.90;999.90;;;3.10;99.90;;;;;;4901894;29;20032;-82
2022/12/09 16:39:21;;;;;;;1999.90;999.90;;;3.10;99.90;;;;;;4918772;29;20059;-81
2022/12/09 16:41:50;;;;;;;1999.90;999.90;;;3.00;99.90;;;;;;4912377;29;20119;-81
2022/12/09 16:44:26;;;;;;;1999.90;999.90;;;2.90;99.90;;;;;;4920725;29;20445;-81
2022/12/09 16:47:07;;;;;;;1999.90;999.90;;;2.90;99.90;;;;;;4937461;29;20028;-81
2022/12/09 16:49:32;;;;;;;1999.90;999.90;;;2.80;99.90;;;;;;4936486;29;20055;-81
2022/12/09 16:51:58;;;;;;;1999.90;999.90;;;2.80;99.90;;;;;;4920617;29;20067;-81
2022/12/09 16:54:23;;;;;;;1999.90;999.90;;;2.70;99.90;;;;;;4937415;29;20024;-81
2022/12/09 16:56:50;;;;;;;1999.90;999.90;;;2.60;99.90;;;;;;4918877;29;20111;-81
2022/12/09 16:59:15;;;;;;;1999.90;999.90;;;2.60;99.90;;;;;;4916680;29;20121;-81
2022/12/09 17:01:41;;;;;;;1999.90;999.90;;;2.50;99.90;;;;;;4918036;29;20044;-81
2022/12/09 17:04:18;;;;;;;1999.90;999.90;;;2.40;99.90;;;;;;4930190;29;20420;-81
2022/12/09 17:06:44;;;;;;;1999.90;999.90;;;2.30;99.90;;;;;;4919889;29;20119;-81
2022/12/09 17:09:10;;;;;;;1999.90;999.90;;;2.30;99.90;;;;;;4936953;29;20047;-82
2022/12/09 17:11:36;;;;;;;1999.90;999.90;;;2.30;99.90;;;;;;4919876;29;20059;-82
2022/12/09 17:14:02;;;;;;;1999.90;999.90;;;2.30;99.90;;;;;;4936031;29;20043;-81
2022/12/09 17:16:28;;;;;;;1999.90;999.90;;;2.20;99.90;;;;;;4919145;29;20043;-81
2022/12/09 17:18:53;;;;;;;1999.90;999.90;;;2.20;99.90;;;;;;4933263;29;20028;-81
2022/12/09 17:21:19;;;;;;;1999.90;999.90;;;2.10;99.90;;;;;;4936888;29;20031;-81
2022/12/09 17:23:45;;;;;;;1999.90;999.90;;;2.00;99.90;;;;;;4936765;29;20066;-81
2022/12/09 17:26:14;;;;;;;1999.90;999.90;;;2.00;99.90;;;;;;4935793;29;20028;-82
2022/12/09 17:28:41;;;;;;;1999.90;999.90;;;2.00;99.90;;;;;;4936066;29;20122;-81
2022/12/09 17:31:09;;;;;;;1999.90;999.90;;;2.00;99.90;;;;;;4936773;29;20055;-82
2022/12/09 17:33:34;;;;;;;1999.90;999.90;;;1.90;99.90;;;;;;4931459;29;20107;-82
2022/12/09 17:36:00;;;;;;;1999.90;999.90;;;2.00;99.90;;;;;;4918000;29;20103;-82
2022/12/09 17:38:28;;;;;;;1999.90;999.90;;;1.90;99.90;;;;;;4918259;29;20050;-81
2022/12/09 17:40:54;;;;;;;1999.90;999.90;;;1.90;99.90;;;;;;4917536;29;20028;-82
2022/12/09 17:43:19;;;;;;;1999.90;999.90;;;1.90;99.90;;;;;;4917732;29;20099;-82
2022/12/09 17:45:45;;;;;;;1999.90;999.90;;;1.90;99.90;;;;;;4931489;29;20027;-82
2022/12/09 17:48:10;;;;;;;1999.90;999.90;;;1.90;99.90;;;;;;4936659;29;20111;-82
2022/12/09 17:50:38;;;;;;;1999.90;999.90;;;1.80;99.90;;;;;;4936982;29;20016;-82
2022/12/09 17:53:03;;;;;;;1999.90;999.90;;;1.80;99.90;;;;;;4936409;29;20035;-81
2022/12/09 17:55:29;;;;;;;1999.90;999.90;;;1.70;99.90;;;;;;4936402;29;20032;-81
2022/12/09 17:57:55;;;;;;;1999.90;999.90;;;1.60;99.90;;;;;;4936473;29;20031;-80
2022/12/09 18:00:20;;;;;;;1999.90;999.90;;;1.60;99.90;;;;;;4936306;29;20024;-80
2022/12/09 18:02:46;;;;;;;1999.90;999.90;;;1.60;99.90;;;;;;4936423;29;20070;-80
2022/12/09 18:05:11;;;;;;;1999.90;999.90;;;1.50;99.90;;;;;;4936232;29;20452;-80
2022/12/09 18:07:37;;;;;;;1999.90;999.90;;;1.50;99.90;;;;;;4936260;29;20035;-80
2022/12/09 18:10:03;;;;;;;1999.90;999.90;;;1.50;99.90;;;;;;4936232;29;20028;-80
2022/12/09 18:12:29;;;;;;;1999.90;999.90;;;1.50;99.90;;;;;;4936303;29;20039;-80
2022/12/09 18:14:54;;;;;;;1999.90;999.90;;;1.40;99.90;;;;;;4935730;29;20391;-80
2022/12/09 18:17:20;;;;;;;1999.90;999.90;;;1.40;99.90;;;;;;4926691;29;20052;-80
2022/12/09 18:19:46;;;;;;;1999.90;999.90;;;1.40;99.90;;;;;;4924445;29;20035;-80
2022/12/09 18:22:11;;;;;;;1999.90;999.90;;;1.50;99.90;;;;;;4936023;29;20091;-80
2022/12/09 18:24:37;;;;;;;1999.90;999.90;;;1.50;99.90;;;;;;4935488;29;20127;-80
2022/12/09 18:27:03;;;;;;;1999.90;999.90;;;1.50;99.90;;;;;;4935502;29;20115;-80
2022/12/09 18:29:29;;;;;;;1999.90;999.90;;;1.50;99.90;;;;;;4935750;29;20472;-80
2022/12/09 18:31:55;;;;;;;1999.90;999.90;;;1.50;99.90;;;;;;4918602;29;20035;-80
2022/12/09 18:34:26;;;;;;;1999.90;999.90;;;1.50;99.90;;;;;;4924353;29;20028;-80
2022/12/09 18:36:52;;;;;;;1999.90;999.90;;;1.40;99.90;;;;;;4914465;29;20035;-80
2022/12/09 18:39:18;;;;;;;1999.90;999.90;;;1.40;99.90;;;;;;4916564;29;20028;-80
2022/12/09 18:41:44;;;;;;;1999.90;999.90;;;1.40;99.90;;;;;;4914978;29;20043;-80
2022/12/09 18:44:12;;;;;;;1999.90;999.90;;;1.30;99.90;;;;;;4916806;29;20553;-80
2022/12/09 18:46:42;;;;;;;1999.90;999.90;;;1.30;99.90;;;;;;4935851;29;20028;-80
2022/12/09 18:49:18;;;;;;;1999.90;999.90;;;1.30;99.90;;;;;;4918228;29;20079;-80
2022/12/09 18:51:45;;;;;;;1999.90;999.90;;;1.20;99.90;;;;;;4934655;29;20031;-80
2022/12/09 18:54:22;;;;;;;1999.90;999.90;;;1.10;99.90;;;;;;4935668;29;20505;-81
2022/12/09 18:56:48;;;;;;;1999.90;999.90;;;1.10;99.90;;;;;;4935478;29;20023;-80
2022/12/09 18:59:14;;;;;;;1999.90;999.90;;;1.10;99.90;;;;;;4935451;29;20166;-80
2022/12/09 19:01:43;;;;;;;1999.90;999.90;;;1.00;99.90;;;;;;4935296;29;20036;-80
2022/12/09 19:04:19;;;;;;;1999.90;999.90;;;1.00;99.90;;;;;;4935240;29;20040;-80
2022/12/09 19:06:47;;;;;;;1999.90;999.90;;;0.90;99.90;;;;;;4934127;29;20467;-80
2022/12/09 19:09:18;;;;;;;1999.90;999.90;;;0.90;99.90;;;;;;4933884;29;20026;-80
2022/12/09 19:11:45;;;;;;;1999.90;999.90;;;0.90;99.90;;;;;;4898795;29;20024;-80
2022/12/09 19:14:12;;;;;;;1999.90;999.90;;;0.80;99.90;;;;;;4915787;29;20110;-80
2022/12/09 19:16:39;;;;;;;1999.90;999.90;;;0.80;99.90;;;;;;4916873;29;20043;-81
2022/12/09 19:19:04;;;;;;;1999.90;999.90;;;0.80;99.90;;;;;;4925854;29;20539;-81
2022/12/09 19:21:30;;;;;;;1999.90;999.90;;;0.70;99.90;;;;;;4922030;29;20024;-80
2022/12/09 19:23:56;;;;;;;1999.90;999.90;;;0.80;99.90;;;;;;4915717;29;20523;-81
2022/12/09 19:26:24;;;;;;;1999.90;999.90;;;0.80;99.90;;;;;;4898727;29;20036;-80
2022/12/09 19:28:55;;;;;;;1999.90;999.90;;;0.80;99.90;;;;;;4916364;29;20055;-80
2022/12/09 19:31:24;;;;;;;1999.90;999.90;;;0.70;99.90;;;;;;4916094;29;20028;-81
2022/12/09 19:33:57;;;;;;;1999.90;999.90;;;0.70;99.90;;;;;;4916221;29;20020;-80
2022/12/09 19:36:24;;;;;;;1999.90;999.90;;;0.70;99.90;;;;;;4899143;29;20036;-80
2022/12/09 19:38:51;;;;;;;1999.90;999.90;;;0.70;99.90;;;;;;4914942;29;20376;-80
2022/12/09 19:41:17;;;;;;;1999.90;999.90;;;0.70;99.90;;;;;;4915530;29;20047;-80
2022/12/09 19:43:43;;;;;;;1999.90;999.90;;;0.70;99.90;;;;;;4914799;29;20035;-80
2022/12/09 19:46:10;;;;;;;1999.90;999.90;;;0.70;99.90;;;;;;4915995;29;20036;-80
2022/12/09 19:48:38;;;;;;;1999.90;999.90;;;0.70;99.90;;;;;;4916132;29;20050;-80
2022/12/09 19:51:06;;;;;;;1999.90;999.90;;;0.70;99.90;;;;;;4914639;29;20052;-80
2022/12/09 19:53:33;;;;;;;1999.90;999.90;;;0.60;99.90;;;;;;4915965;29;20488;-80
2022/12/09 19:56:00;;;;;;;1999.90;999.90;;;0.70;99.90;;;;;;4915675;29;20087;-80
2022/12/09 19:58:27;;;;;;;1999.90;999.90;;;0.60;99.90;;;;;;4916257;29;20031;-81
2022/12/09 20:00:53;;;;;;;1999.90;999.90;;;0.60;99.90;;;;;;4915971;29;20039;-80
2022/12/09 20:03:18;;;;;;;1999.90;999.90;;;0.60;99.90;;;;;;4921524;29;20039;-80
2022/12/09 20:05:52;;;;;;;1999.90;999.90;;;0.60;99.90;;;;;;4917752;29;20063;-81
2022/12/09 20:08:18;;;;;;;1999.90;999.90;;;0.60;99.90;;;;;;4934841;29;20020;-80
2022/12/09 20:10:45;;;;;;;1999.90;999.90;;;0.70;99.90;;;;;;4917789;29;20495;-80
2022/12/09 20:13:13;;;;;;;1999.90;999.90;;;0.60;99.90;;;;;;4934554;29;20024;-80
2022/12/09 20:15:39;;;;;;;1999.90;999.90;;;0.60;99.90;;;;;;4916655;29;20110;-80
2022/12/09 20:18:05;;;;;;;1999.90;999.90;;;0.60;99.90;;;;;;4916652;29;20140;-80
2022/12/09 20:20:33;;;;;;;1999.90;999.90;;;0.50;99.90;;;;;;4915886;29;20060;-80
2022/12/09 20:22:59;;;;;;;1999.90;999.90;;;0.50;99.90;;;;;;4898279;29;20088;-80
2022/12/09 20:25:25;;;;;;;1999.90;999.90;;;0.50;99.90;;;;;;4918243;29;20086;-80
2022/12/09 20:27:51;;;;;;;1999.90;999.90;;;0.50;99.90;;;;;;4919001;29;20480;-80
2022/12/09 20:30:16;;;;;;;1999.90;999.90;;;0.40;99.90;;;;;;4902083;29;20029;-80
2022/12/09 20:32:43;;;;;;;1999.90;999.90;;;0.40;99.90;;;;;;4902271;29;20075;-80